sensor_id;sensor_type;location;lat;lon;timestamp;temperature;humidity
48936;DHT22;34745;52.276;10.528;2023-05-07T00:02:10;10.80;99.90
48936;DHT22;34745;52.276;10.528;2023-05-07T00:04:37;10.80;99.90
48936;DHT22;34745;52.276;10.528;2023-05-07T00:07:05;10.80;99.90
48936;DHT22;34745;52.276;10.528;2023-05-07T00:09:33;10.80;99.90
48936;DHT22;34745;52.276;10.528;2023-05-07T00:12:00;10.70;99.90
48936;DHT22;34745;52.276;10.528;2023-05-07T00:14:28;10.70;99.90
48936;DHT22;34745;52.276;10.528;2023-05-07T00:16:55;10.70;99.90
48936;DHT22;34745;52.276;10.528;2023-05-07T00:19:23;10.70;99.90
48936;DHT22;34745;52.276;10.528;2023-05-07T00:21:51;10.70;99.90
48936;DHT22;34745;52.276;10.528;2023-05-07T00:24:20;10.70;99.90
48936;DHT22;34745;52.276;10.528;2023-05-07T00:26:47;10.70;99.90
48936;DHT22;34745;52.276;10.528;2023-05-07T00:29:14;10.70;99.90
48936;DHT22;34745;52.276;10.528;2023-05-07T00:31:41;10.70;99.90
48936;DHT22;34745;52.276;10.528;2023-05-07T00:34:08;10.70;99.90
48936;DHT22;34745;52.276;10.528;2023-05-07T00:36:36;10.70;99.90
48936;DHT22;34745;52.276;10.528;2023-05-07T00:39:04;10.70;99.90
48936;DHT22;34745;52.276;10.528;2023-05-07T00:41:31;10.70;99.90
48936;DHT22;34745;52.276;10.528;2023-05-07T00:43:58;10.70;99.90
48936;DHT22;34745;52.276;10.528;2023-05-07T00:46:25;10.70;99.90
48936;DHT22;34745;52.276;10.528;2023-05-07T00:48:53;10.70;99.90
48936;DHT22;34745;52.276;10.528;2023-05-07T00:51:20;10.70;99.90
48936;DHT22;34745;52.276;10.528;2023-05-07T00:53:48;10.70;99.90
48936;DHT22;34745;52.276;10.528;2023-05-07T00:56:17;10.70;99.90
48936;DHT22;34745;52.276;10.528;2023-05-07T00:58:44;10.70;99.90
48936;DHT22;34745;52.276;10.528;2023-05-07T01:01:11;10.70;99.90
48936;DHT22;34745;52.276;10.528;2023-05-07T01:03:38;10.60;99.90
48936;DHT22;34745;52.276;10.528;2023-05-07T01:06:06;10.60;99.90
48936;DHT22;34745;52.276;10.528;2023-05-07T01:08:35;10.60;99.90
48936;DHT22;34745;52.276;10.528;2023-05-07T01:11:04;10.60;99.90
48936;DHT22;34745;52.276;10.528;2023-05-07T01:13:31;10.60;99.90
48936;DHT22;34745;52.276;10.528;2023-05-07T01:15:58;10.60;99.90
48936;DHT22;34745;52.276;10.528;2023-05-07T01:18:25;10.60;99.90
48936;DHT22;34745;52.276;10.528;2023-05-07T01:20:54;10.60;99.90
48936;DHT22;34745;52.276;10.528;2023-05-07T01:23:23;10.50;99.90
48936;DHT22;34745;52.276;10.528;2023-05-07T01:25:52;10.50;99.90
48936;DHT22;34745;52.276;10.528;2023-05-07T01:28:20;10.50;99.90
48936;DHT22;34745;52.276;10.528;2023-05-07T01:31:00;10.60;99.90
48936;DHT22;34745;52.276;10.528;2023-05-07T01:33:29;10.50;99.90
48936;DHT22;34745;52.276;10.528;2023-05-07T01:35:59;10.50;99.90
48936;DHT22;34745;52.276;10.528;2023-05-07T01:38:32;10.50;99.90
48936;DHT22;34745;52.276;10.528;2023-05-07T01:40:59;10.50;99.90
48936;DHT22;34745;52.276;10.528;2023-05-07T01:43:26;10.40;99.90
48936;DHT22;34745;52.276;10.528;2023-05-07T01:45:54;10.40;99.90
48936;DHT22;34745;52.276;10.528;2023-05-07T01:48:22;10.40;99.90
48936;DHT22;34745;52.276;10.528;2023-05-07T01:50:50;10.40;99.90
48936;DHT22;34745;52.276;10.528;2023-05-07T01:53:17;10.40;99.90
48936;DHT22;34745;52.276;10.528;2023-05-07T01:55:46;10.30;99.90
48936;DHT22;34745;52.276;10.528;2023-05-07T01:58:13;10.30;99.90
48936;DHT22;34745;52.276;10.528;2023-05-07T02:00:40;10.30;99.90
48936;DHT22;34745;52.276;10.528;2023-05-07T02:03:07;10.30;99.90
48936;DHT22;34745;52.276;10.528;2023-05-07T02:05:34;10.30;99.90
48936;DHT22;34745;52.276;10.528;2023-05-07T02:08:02;10.30;99.90
48936;DHT22;34745;52.276;10.528;2023-05-07T02:10:29;10.20;99.90
48936;DHT22;34745;52.276;10.528;2023-05-07T02:12:57;10.20;99.90
48936;DHT22;34745;52.276;10.528;2023-05-07T02:15:24;10.20;99.90
48936;DHT22;34745;52.276;10.528;2023-05-07T02:17:58;10.20;99.90
48936;DHT22;34745;52.276;10.528;2023-05-07T02:20:27;10.20;99.90
48936;DHT22;34745;52.276;10.528;2023-05-07T02:22:54;10.20;99.90
48936;DHT22;34745;52.276;10.528;2023-05-07T02:25:21;10.20;99.90
48936;DHT22;34745;52.276;10.528;2023-05-07T02:27:48;10.30;99.90
48936;DHT22;34745;52.276;10.528;2023-05-07T02:30:17;10.30;99.90
48936;DHT22;34745;52.276;10.528;2023-05-07T02:32:44;10.20;99.90
48936;DHT22;34745;52.276;10.528;2023-05-07T02:35:11;10.30;99.90
48936;DHT22;34745;52.276;10.528;2023-05-07T02:37:38;10.30;99.90
48936;DHT22;34745;52.276;10.528;2023-05-07T02:40:06;10.30;99.90
48936;DHT22;34745;52.276;10.528;2023-05-07T02:42:34;10.20;99.90
48936;DHT22;34745;52.276;10.528;2023-05-07T02:45:02;10.30;99.90
48936;DHT22;34745;52.276;10.528;2023-05-07T02:47:30;10.30;99.90
48936;DHT22;34745;52.276;10.528;2023-05-07T02:49:57;10.30;99.90
48936;DHT22;34745;52.276;10.528;2023-05-07T02:52:24;10.30;99.90
48936;DHT22;34745;52.276;10.528;2023-05-07T02:54:51;10.30;99.90
48936;DHT22;34745;52.276;10.528;2023-05-07T02:57:18;10.30;99.90
48936;DHT22;34745;52.276;10.528;2023-05-07T02:59:45;10.30;99.90
48936;DHT22;34745;52.276;10.528;2023-05-07T03:02:12;10.20;99.90
48936;DHT22;34745;52.276;10.528;2023-05-07T03:04:40;10.10;99.90
48936;DHT22;34745;52.276;10.528;2023-05-07T03:07:08;10.10;99.90
48936;DHT22;34745;52.276;10.528;2023-05-07T03:09:35;10.20;99.90
48936;DHT22;34745;52.276;10.528;2023-05-07T03:12:02;10.10;99.90
48936;DHT22;34745;52.276;10.528;2023-05-07T03:14:29;10.10;99.90
48936;DHT22;34745;52.276;10.528;2023-05-07T03:16:56;10.10;99.90
48936;DHT22;34745;52.276;10.528;2023-05-07T03:19:23;10.10;99.90
48936;DHT22;34745;52.276;10.528;2023-05-07T03:21:52;10.10;99.90
48936;DHT22;34745;52.276;10.528;2023-05-07T03:24:19;10.10;99.90
48936;DHT22;34745;52.276;10.528;2023-05-07T03:26:46;10.00;99.90
48936;DHT22;34745;52.276;10.528;2023-05-07T03:29:13;10.00;99.90
48936;DHT22;34745;52.276;10.528;2023-05-07T03:31:40;9.90;99.90
48936;DHT22;34745;52.276;10.528;2023-05-07T03:34:08;10.00;99.90
48936;DHT22;34745;52.276;10.528;2023-05-07T03:36:35;9.90;99.90
48936;DHT22;34745;52.276;10.528;2023-05-07T03:39:03;9.90;99.90
48936;DHT22;34745;52.276;10.528;2023-05-07T03:41:30;9.90;99.90
48936;DHT22;34745;52.276;10.528;2023-05-07T03:43:57;9.90;99.90
48936;DHT22;34745;52.276;10.528;2023-05-07T03:46:24;10.00;99.90
48936;DHT22;34745;52.276;10.528;2023-05-07T03:48:53;10.00;99.90
48936;DHT22;34745;52.276;10.528;2023-05-07T03:51:20;9.90;99.90
48936;DHT22;34745;52.276;10.528;2023-05-07T03:53:47;9.90;99.90
48936;DHT22;34745;52.276;10.528;2023-05-07T03:56:16;10.00;99.90
48936;DHT22;34745;52.276;10.528;2023-05-07T03:58:45;10.00;99.90
48936;DHT22;34745;52.276;10.528;2023-05-07T04:01:12;10.00;99.90
48936;DHT22;34745;52.276;10.528;2023-05-07T04:03:39;10.00;99.90
48936;DHT22;34745;52.276;10.528;2023-05-07T04:06:06;10.00;99.90
48936;DHT22;34745;52.276;10.528;2023-05-07T04:08:33;10.00;99.90
48936;DHT22;34745;52.276;10.528;2023-05-07T04:11:00;10.00;99.90
48936;DHT22;34745;52.276;10.528;2023-05-07T04:13:29;10.00;99.90
48936;DHT22;34745;52.276;10.528;2023-05-07T04:15:56;9.90;99.90
48936;DHT22;34745;52.276;10.528;2023-05-07T04:18:23;9.90;99.90
48936;DHT22;34745;52.276;10.528;2023-05-07T04:20:51;9.90;99.90
48936;DHT22;34745;52.276;10.528;2023-05-07T04:23:18;9.90;99.90
48936;DHT22;34745;52.276;10.528;2023-05-07T04:25:45;9.90;99.90
48936;DHT22;34745;52.276;10.528;2023-05-07T04:28:12;9.90;99.90
48936;DHT22;34745;52.276;10.528;2023-05-07T04:30:40;10.00;99.90
48936;DHT22;34745;52.276;10.528;2023-05-07T04:33:07;10.00;99.90
48936;DHT22;34745;52.276;10.528;2023-05-07T04:35:35;10.00;99.90
48936;DHT22;34745;52.276;10.528;2023-05-07T04:38:02;10.00;99.90
48936;DHT22;34745;52.276;10.528;2023-05-07T04:40:29;10.00;99.90
48936;DHT22;34745;52.276;10.528;2023-05-07T04:42:56;10.00;98.10
48936;DHT22;34745;52.276;10.528;2023-05-07T04:45:23;10.00;99.90
48936;DHT22;34745;52.276;10.528;2023-05-07T04:47:52;9.90;98.60
48936;DHT22;34745;52.276;10.528;2023-05-07T04:50:19;10.00;99.40
48936;DHT22;34745;52.276;10.528;2023-05-07T04:52:46;9.90;99.90
48936;DHT22;34745;52.276;10.528;2023-05-07T04:55:13;9.90;99.90
48936;DHT22;34745;52.276;10.528;2023-05-07T04:57:40;10.00;93.50
48936;DHT22;34745;52.276;10.528;2023-05-07T05:00:09;10.00;93.50
48936;DHT22;34745;52.276;10.528;2023-05-07T05:02:36;10.10;81.50
48936;DHT22;34745;52.276;10.528;2023-05-07T05:05:06;10.10;74.30
48936;DHT22;34745;52.276;10.528;2023-05-07T05:07:33;10.20;75.20
48936;DHT22;34745;52.276;10.528;2023-05-07T05:10:01;10.20;64.10
48936;DHT22;34745;52.276;10.528;2023-05-07T05:12:29;10.20;54.00
48936;DHT22;34745;52.276;10.528;2023-05-07T05:14:57;10.30;44.40
48936;DHT22;34745;52.276;10.528;2023-05-07T05:17:24;10.30;45.80
48936;DHT22;34745;52.276;10.528;2023-05-07T05:19:51;10.30;38.50
48936;DHT22;34745;52.276;10.528;2023-05-07T05:22:19;10.30;42.00
48936;DHT22;34745;52.276;10.528;2023-05-07T05:24:47;10.30;39.50
48936;DHT22;34745;52.276;10.528;2023-05-07T05:27:14;10.30;40.70
48936;DHT22;34745;52.276;10.528;2023-05-07T05:29:42;10.30;40.10
48936;DHT22;34745;52.276;10.528;2023-05-07T05:32:08;10.30;42.00
48936;DHT22;34745;52.276;10.528;2023-05-07T05:34:36;10.30;39.30
48936;DHT22;34745;52.276;10.528;2023-05-07T05:37:03;10.30;37.30
48936;DHT22;34745;52.276;10.528;2023-05-07T05:39:31;10.40;35.80
48936;DHT22;34745;52.276;10.528;2023-05-07T05:41:58;10.30;39.90
48936;DHT22;34745;52.276;10.528;2023-05-07T05:44:25;10.40;38.70
48936;DHT22;34745;52.276;10.528;2023-05-07T05:46:52;10.40;43.10
48936;DHT22;34745;52.276;10.528;2023-05-07T05:49:22;10.40;42.60
48936;DHT22;34745;52.276;10.528;2023-05-07T05:51:49;10.40;39.70
48936;DHT22;34745;52.276;10.528;2023-05-07T05:54:16;10.30;46.50
48936;DHT22;34745;52.276;10.528;2023-05-07T05:56:44;10.40;47.10
48936;DHT22;34745;52.276;10.528;2023-05-07T05:59:11;10.40;49.90
48936;DHT22;34745;52.276;10.528;2023-05-07T06:01:39;10.40;42.50
48936;DHT22;34745;52.276;10.528;2023-05-07T06:04:06;10.40;37.20
48936;DHT22;34745;52.276;10.528;2023-05-07T06:06:33;10.40;40.50
48936;DHT22;34745;52.276;10.528;2023-05-07T06:09:00;10.40;40.40
48936;DHT22;34745;52.276;10.528;2023-05-07T06:11:27;10.50;41.50
48936;DHT22;34745;52.276;10.528;2023-05-07T06:13:55;10.60;27.50
48936;DHT22;34745;52.276;10.528;2023-05-07T06:16:22;10.70;24.40
48936;DHT22;34745;52.276;10.528;2023-05-07T06:18:50;10.60;31.00
48936;DHT22;34745;52.276;10.528;2023-05-07T06:21:18;10.60;29.10
48936;DHT22;34745;52.276;10.528;2023-05-07T06:23:45;10.70;24.20
48936;DHT22;34745;52.276;10.528;2023-05-07T06:26:11;10.60;22.40
48936;DHT22;34745;52.276;10.528;2023-05-07T06:28:38;10.80;25.20
48936;DHT22;34745;52.276;10.528;2023-05-07T06:31:15;10.70;19.90
48936;DHT22;34745;52.276;10.528;2023-05-07T06:33:43;10.80;15.70
48936;DHT22;34745;52.276;10.528;2023-05-07T06:36:10;10.80;13.80
48936;DHT22;34745;52.276;10.528;2023-05-07T06:38:37;10.80;8.70
48936;DHT22;34745;52.276;10.528;2023-05-07T06:41:06;10.90;1.00
48936;DHT22;34745;52.276;10.528;2023-05-07T06:43:33;11.00;1.00
48936;DHT22;34745;52.276;10.528;2023-05-07T06:46:00;11.00;1.00
48936;DHT22;34745;52.276;10.528;2023-05-07T06:48:28;10.90;1.00
48936;DHT22;34745;52.276;10.528;2023-05-07T06:50:55;11.00;1.00
48936;DHT22;34745;52.276;10.528;2023-05-07T06:53:24;11.10;1.00
48936;DHT22;34745;52.276;10.528;2023-05-07T06:55:51;11.10;1.00
48936;DHT22;34745;52.276;10.528;2023-05-07T06:58:18;11.00;1.00
48936;DHT22;34745;52.276;10.528;2023-05-07T07:00:46;11.10;1.00
48936;DHT22;34745;52.276;10.528;2023-05-07T07:03:13;11.20;1.00
48936;DHT22;34745;52.276;10.528;2023-05-07T07:05:41;11.30;1.00
48936;DHT22;34745;52.276;10.528;2023-05-07T07:08:10;11.30;1.00
48936;DHT22;34745;52.276;10.528;2023-05-07T07:10:37;11.20;1.00
48936;DHT22;34745;52.276;10.528;2023-05-07T07:13:04;11.20;1.00
48936;DHT22;34745;52.276;10.528;2023-05-07T07:15:32;11.30;1.00
48936;DHT22;34745;52.276;10.528;2023-05-07T07:17:59;11.30;1.00
48936;DHT22;34745;52.276;10.528;2023-05-07T07:20:26;11.30;1.00
48936;DHT22;34745;52.276;10.528;2023-05-07T07:22:54;11.20;1.00
48936;DHT22;34745;52.276;10.528;2023-05-07T07:25:22;11.30;1.00
48936;DHT22;34745;52.276;10.528;2023-05-07T07:27:49;11.30;1.00
48936;DHT22;34745;52.276;10.528;2023-05-07T07:30:16;11.30;1.00
48936;DHT22;34745;52.276;10.528;2023-05-07T07:32:43;11.30;1.00
48936;DHT22;34745;52.276;10.528;2023-05-07T07:35:11;11.10;1.00
48936;DHT22;34745;52.276;10.528;2023-05-07T07:37:38;11.10;1.00
48936;DHT22;34745;52.276;10.528;2023-05-07T07:40:08;11.10;1.00
48936;DHT22;34745;52.276;10.528;2023-05-07T07:42:35;11.10;1.00
48936;DHT22;34745;52.276;10.528;2023-05-07T07:45:02;11.20;1.00
48936;DHT22;34745;52.276;10.528;2023-05-07T07:47:29;11.20;1.00
48936;DHT22;34745;52.276;10.528;2023-05-07T07:49:57;11.20;1.00
48936;DHT22;34745;52.276;10.528;2023-05-07T07:52:23;11.20;1.00
48936;DHT22;34745;52.276;10.528;2023-05-07T07:54:51;11.30;1.00
48936;DHT22;34745;52.276;10.528;2023-05-07T07:57:19;11.20;1.00
48936;DHT22;34745;52.276;10.528;2023-05-07T07:59:46;11.20;1.00
48936;DHT22;34745;52.276;10.528;2023-05-07T08:02:13;11.20;1.00
48936;DHT22;34745;52.276;10.528;2023-05-07T08:04:40;11.30;1.00
48936;DHT22;34745;52.276;10.528;2023-05-07T08:07:08;11.30;1.00
48936;DHT22;34745;52.276;10.528;2023-05-07T08:09:36;11.20;1.00
48936;DHT22;34745;52.276;10.528;2023-05-07T08:12:04;11.30;1.00
48936;DHT22;34745;52.276;10.528;2023-05-07T08:14:32;11.40;1.00
48936;DHT22;34745;52.276;10.528;2023-05-07T08:16:59;11.40;1.00
48936;DHT22;34745;52.276;10.528;2023-05-07T08:19:26;11.50;1.00
48936;DHT22;34745;52.276;10.528;2023-05-07T08:21:53;11.60;1.00
48936;DHT22;34745;52.276;10.528;2023-05-07T08:24:21;11.70;1.00
48936;DHT22;34745;52.276;10.528;2023-05-07T08:26:47;11.70;1.00
48936;DHT22;34745;52.276;10.528;2023-05-07T08:29:14;11.80;1.00
48936;DHT22;34745;52.276;10.528;2023-05-07T08:31:43;11.70;1.00
48936;DHT22;34745;52.276;10.528;2023-05-07T08:34:10;11.70;1.00
48936;DHT22;34745;52.276;10.528;2023-05-07T08:36:37;11.70;1.00
48936;DHT22;34745;52.276;10.528;2023-05-07T08:39:04;11.80;1.00
48936;DHT22;34745;52.276;10.528;2023-05-07T08:41:32;11.80;1.00
48936;DHT22;34745;52.276;10.528;2023-05-07T08:43:59;11.80;1.00
48936;DHT22;34745;52.276;10.528;2023-05-07T08:46:31;11.90;1.00
48936;DHT22;34745;52.276;10.528;2023-05-07T08:49:00;11.90;1.00
48936;DHT22;34745;52.276;10.528;2023-05-07T08:51:27;12.10;1.00
48936;DHT22;34745;52.276;10.528;2023-05-07T08:53:54;12.20;1.00
48936;DHT22;34745;52.276;10.528;2023-05-07T08:56:22;12.20;1.00
48936;DHT22;34745;52.276;10.528;2023-05-07T08:58:49;12.30;1.00
48936;DHT22;34745;52.276;10.528;2023-05-07T09:01:17;12.40;1.00
48936;DHT22;34745;52.276;10.528;2023-05-07T09:03:46;12.50;1.00
48936;DHT22;34745;52.276;10.528;2023-05-07T09:06:15;12.70;1.00
48936;DHT22;34745;52.276;10.528;2023-05-07T09:08:49;12.70;1.00
48936;DHT22;34745;52.276;10.528;2023-05-07T09:11:19;12.60;1.00
48936;DHT22;34745;52.276;10.528;2023-05-07T09:13:47;12.50;1.00
48936;DHT22;34745;52.276;10.528;2023-05-07T09:16:14;12.60;1.00
48936;DHT22;34745;52.276;10.528;2023-05-07T09:18:42;12.40;1.00
48936;DHT22;34745;52.276;10.528;2023-05-07T09:21:17;12.40;1.00
48936;DHT22;34745;52.276;10.528;2023-05-07T09:23:44;12.50;1.00
48936;DHT22;34745;52.276;10.528;2023-05-07T09:26:11;12.60;1.00
48936;DHT22;34745;52.276;10.528;2023-05-07T09:28:39;12.80;1.00
48936;DHT22;34745;52.276;10.528;2023-05-07T09:31:07;12.90;1.00
48936;DHT22;34745;52.276;10.528;2023-05-07T09:33:34;13.00;1.00
48936;DHT22;34745;52.276;10.528;2023-05-07T09:36:05;13.00;1.00
48936;DHT22;34745;52.276;10.528;2023-05-07T09:38:35;12.90;1.00
48936;DHT22;34745;52.276;10.528;2023-05-07T09:41:03;12.80;1.00
48936;DHT22;34745;52.276;10.528;2023-05-07T09:43:32;12.80;1.00
48936;DHT22;34745;52.276;10.528;2023-05-07T09:46:07;12.80;1.00
48936;DHT22;34745;52.276;10.528;2023-05-07T09:48:37;13.00;1.00
48936;DHT22;34745;52.276;10.528;2023-05-07T09:51:17;13.20;1.00
48936;DHT22;34745;52.276;10.528;2023-05-07T09:53:47;13.20;1.00
48936;DHT22;34745;52.276;10.528;2023-05-07T09:56:15;13.40;1.00
48936;DHT22;34745;52.276;10.528;2023-05-07T09:58:43;13.70;1.00
48936;DHT22;34745;52.276;10.528;2023-05-07T10:01:12;13.80;1.00
48936;DHT22;34745;52.276;10.528;2023-05-07T10:03:40;13.80;1.00
48936;DHT22;34745;52.276;10.528;2023-05-07T10:06:09;14.00;1.00
48936;DHT22;34745;52.276;10.528;2023-05-07T10:08:37;14.00;1.00
48936;DHT22;34745;52.276;10.528;2023-05-07T10:11:05;14.00;1.00
48936;DHT22;34745;52.276;10.528;2023-05-07T10:13:33;14.00;1.00
48936;DHT22;34745;52.276;10.528;2023-05-07T10:16:03;14.10;1.00
48936;DHT22;34745;52.276;10.528;2023-05-07T10:18:31;14.10;1.00
48936;DHT22;34745;52.276;10.528;2023-05-07T10:21:04;14.20;1.00
48936;DHT22;34745;52.276;10.528;2023-05-07T10:23:34;14.20;1.00
48936;DHT22;34745;52.276;10.528;2023-05-07T10:26:03;14.40;1.00
48936;DHT22;34745;52.276;10.528;2023-05-07T10:28:36;14.40;1.00
48936;DHT22;34745;52.276;10.528;2023-05-07T10:31:15;14.00;1.00
48936;DHT22;34745;52.276;10.528;2023-05-07T10:33:46;13.70;1.00
48936;DHT22;34745;52.276;10.528;2023-05-07T10:36:14;13.50;1.00
48936;DHT22;34745;52.276;10.528;2023-05-07T10:38:42;13.30;1.00
48936;DHT22;34745;52.276;10.528;2023-05-07T10:41:10;13.20;1.00
48936;DHT22;34745;52.276;10.528;2023-05-07T10:43:40;13.10;1.00
48936;DHT22;34745;52.276;10.528;2023-05-07T10:46:14;12.90;1.00
48936;DHT22;34745;52.276;10.528;2023-05-07T10:49:07;13.00;1.00
48936;DHT22;34745;52.276;10.528;2023-05-07T10:51:35;13.00;1.00
48936;DHT22;34745;52.276;10.528;2023-05-07T10:54:22;13.00;1.00
48936;DHT22;34745;52.276;10.528;2023-05-07T10:56:49;13.20;1.00
48936;DHT22;34745;52.276;10.528;2023-05-07T10:59:33;13.20;1.00
48936;DHT22;34745;52.276;10.528;2023-05-07T11:02:02;13.30;1.00
48936;DHT22;34745;52.276;10.528;2023-05-07T11:04:31;13.40;1.00
48936;DHT22;34745;52.276;10.528;2023-05-07T11:07:24;13.40;1.00
48936;DHT22;34745;52.276;10.528;2023-05-07T11:10:09;13.40;1.00
48936;DHT22;34745;52.276;10.528;2023-05-07T11:12:50;13.50;1.00
48936;DHT22;34745;52.276;10.528;2023-05-07T11:15:39;13.70;1.00
48936;DHT22;34745;52.276;10.528;2023-05-07T11:18:06;14.00;1.00
48936;DHT22;34745;52.276;10.528;2023-05-07T11:20:55;14.30;1.00
48936;DHT22;34745;52.276;10.528;2023-05-07T11:26:47;14.30;1.00
48936;DHT22;34745;52.276;10.528;2023-05-07T11:29:16;14.30;1.00
48936;DHT22;34745;52.276;10.528;2023-05-07T11:31:52;14.40;1.00
48936;DHT22;34745;52.276;10.528;2023-05-07T11:34:21;14.40;1.00
48936;DHT22;34745;52.276;10.528;2023-05-07T11:36:48;14.50;1.00
48936;DHT22;34745;52.276;10.528;2023-05-07T11:39:27;14.50;1.00
48936;DHT22;34745;52.276;10.528;2023-05-07T11:41:54;14.50;1.00
48936;DHT22;34745;52.276;10.528;2023-05-07T11:44:21;14.70;1.00
48936;DHT22;34745;52.276;10.528;2023-05-07T11:46:49;14.80;1.00
48936;DHT22;34745;52.276;10.528;2023-05-07T11:49:17;14.60;1.00
48936;DHT22;34745;52.276;10.528;2023-05-07T11:51:44;14.40;1.00
48936;DHT22;34745;52.276;10.528;2023-05-07T11:54:16;14.10;1.00
48936;DHT22;34745;52.276;10.528;2023-05-07T11:56:44;14.20;1.00
48936;DHT22;34745;52.276;10.528;2023-05-07T11:59:11;14.20;1.00
48936;DHT22;34745;52.276;10.528;2023-05-07T12:01:38;14.10;1.00
48936;DHT22;34745;52.276;10.528;2023-05-07T12:04:05;14.00;1.00
48936;DHT22;34745;52.276;10.528;2023-05-07T12:06:37;14.00;1.00
48936;DHT22;34745;52.276;10.528;2023-05-07T12:09:04;13.90;1.00
48936;DHT22;34745;52.276;10.528;2023-05-07T12:11:34;13.90;1.00
48936;DHT22;34745;52.276;10.528;2023-05-07T12:14:01;13.80;1.00
48936;DHT22;34745;52.276;10.528;2023-05-07T12:16:30;13.90;1.00
48936;DHT22;34745;52.276;10.528;2023-05-07T12:18:59;13.70;1.00
48936;DHT22;34745;52.276;10.528;2023-05-07T12:21:26;13.50;1.00
48936;DHT22;34745;52.276;10.528;2023-05-07T12:23:55;13.40;1.00
48936;DHT22;34745;52.276;10.528;2023-05-07T12:26:22;13.40;1.00
48936;DHT22;34745;52.276;10.528;2023-05-07T12:28:51;13.40;1.00
48936;DHT22;34745;52.276;10.528;2023-05-07T12:31:18;13.50;1.00
48936;DHT22;34745;52.276;10.528;2023-05-07T12:33:46;13.50;1.00
48936;DHT22;34745;52.276;10.528;2023-05-07T12:36:13;13.60;1.00
48936;DHT22;34745;52.276;10.528;2023-05-07T12:38:41;13.70;1.00
48936;DHT22;34745;52.276;10.528;2023-05-07T12:41:10;13.70;1.00
48936;DHT22;34745;52.276;10.528;2023-05-07T12:43:39;13.50;1.00
48936;DHT22;34745;52.276;10.528;2023-05-07T12:46:07;13.40;1.00
48936;DHT22;34745;52.276;10.528;2023-05-07T12:48:37;13.40;1.00
48936;DHT22;34745;52.276;10.528;2023-05-07T12:51:05;13.50;1.00
48936;DHT22;34745;52.276;10.528;2023-05-07T12:53:33;13.50;1.00
48936;DHT22;34745;52.276;10.528;2023-05-07T12:56:06;13.60;1.00
48936;DHT22;34745;52.276;10.528;2023-05-07T12:58:35;13.70;1.00
48936;DHT22;34745;52.276;10.528;2023-05-07T13:01:05;13.80;1.00
48936;DHT22;34745;52.276;10.528;2023-05-07T13:03:34;13.90;1.00
48936;DHT22;34745;52.276;10.528;2023-05-07T13:06:03;13.80;1.00
48936;DHT22;34745;52.276;10.528;2023-05-07T13:08:32;13.90;1.00
48936;DHT22;34745;52.276;10.528;2023-05-07T13:11:00;14.00;1.00
48936;DHT22;34745;52.276;10.528;2023-05-07T13:13:31;14.00;1.00
48936;DHT22;34745;52.276;10.528;2023-05-07T13:16:00;14.10;1.00
48936;DHT22;34745;52.276;10.528;2023-05-07T13:18:29;14.30;1.00
48936;DHT22;34745;52.276;10.528;2023-05-07T13:20:57;14.70;1.00
48936;DHT22;34745;52.276;10.528;2023-05-07T13:23:24;14.90;1.00
48936;DHT22;34745;52.276;10.528;2023-05-07T13:25:51;14.80;1.00
48936;DHT22;34745;52.276;10.528;2023-05-07T13:28:23;14.80;1.00
48936;DHT22;34745;52.276;10.528;2023-05-07T13:30:50;14.90;1.00
48936;DHT22;34745;52.276;10.528;2023-05-07T13:33:19;15.40;1.00
48936;DHT22;34745;52.276;10.528;2023-05-07T13:35:47;16.00;1.00
48936;DHT22;34745;52.276;10.528;2023-05-07T13:38:14;16.30;1.00
48936;DHT22;34745;52.276;10.528;2023-05-07T13:40:42;16.50;1.00
48936;DHT22;34745;52.276;10.528;2023-05-07T13:43:09;16.80;1.00
48936;DHT22;34745;52.276;10.528;2023-05-07T13:45:37;17.20;1.00
48936;DHT22;34745;52.276;10.528;2023-05-07T13:48:04;17.00;1.00
48936;DHT22;34745;52.276;10.528;2023-05-07T13:50:33;17.30;1.00
48936;DHT22;34745;52.276;10.528;2023-05-07T13:53:00;18.10;1.00
48936;DHT22;34745;52.276;10.528;2023-05-07T13:55:29;18.80;1.00
48936;DHT22;34745;52.276;10.528;2023-05-07T13:57:57;18.60;1.00
48936;DHT22;34745;52.276;10.528;2023-05-07T14:00:25;18.30;1.00
48936;DHT22;34745;52.276;10.528;2023-05-07T14:02:52;17.70;1.00
48936;DHT22;34745;52.276;10.528;2023-05-07T14:05:20;16.80;1.00
48936;DHT22;34745;52.276;10.528;2023-05-07T14:07:49;16.30;1.00
48936;DHT22;34745;52.276;10.528;2023-05-07T14:10:19;15.80;1.00
48936;DHT22;34745;52.276;10.528;2023-05-07T14:12:46;15.70;1.00
48936;DHT22;34745;52.276;10.528;2023-05-07T14:15:13;15.90;1.00
48936;DHT22;34745;52.276;10.528;2023-05-07T14:17:41;16.20;1.00
48936;DHT22;34745;52.276;10.528;2023-05-07T14:20:08;16.70;1.00
48936;DHT22;34745;52.276;10.528;2023-05-07T14:22:37;17.10;1.00
48936;DHT22;34745;52.276;10.528;2023-05-07T14:25:07;17.90;1.00
48936;DHT22;34745;52.276;10.528;2023-05-07T14:27:36;18.20;1.00
48936;DHT22;34745;52.276;10.528;2023-05-07T14:30:04;18.20;1.00
48936;DHT22;34745;52.276;10.528;2023-05-07T14:32:32;18.00;1.00
48936;DHT22;34745;52.276;10.528;2023-05-07T14:34:59;17.80;1.00
48936;DHT22;34745;52.276;10.528;2023-05-07T14:37:26;17.30;1.00
48936;DHT22;34745;52.276;10.528;2023-05-07T14:39:53;16.90;1.00
48936;DHT22;34745;52.276;10.528;2023-05-07T14:42:21;16.70;1.00
48936;DHT22;34745;52.276;10.528;2023-05-07T14:44:48;16.40;1.00
48936;DHT22;34745;52.276;10.528;2023-05-07T14:47:16;16.30;1.00
48936;DHT22;34745;52.276;10.528;2023-05-07T14:49:45;16.10;1.00
48936;DHT22;34745;52.276;10.528;2023-05-07T14:52:12;16.00;1.00
48936;DHT22;34745;52.276;10.528;2023-05-07T14:54:39;16.00;1.00
48936;DHT22;34745;52.276;10.528;2023-05-07T14:57:08;16.00;1.00
48936;DHT22;34745;52.276;10.528;2023-05-07T14:59:37;16.40;1.00
48936;DHT22;34745;52.276;10.528;2023-05-07T15:02:05;15.90;1.00
48936;DHT22;34745;52.276;10.528;2023-05-07T15:04:35;15.70;1.00
48936;DHT22;34745;52.276;10.528;2023-05-07T15:07:01;15.40;1.00
48936;DHT22;34745;52.276;10.528;2023-05-07T15:09:29;15.50;1.00
48936;DHT22;34745;52.276;10.528;2023-05-07T15:11:56;15.90;1.00
48936;DHT22;34745;52.276;10.528;2023-05-07T15:14:23;16.30;1.00
48936;DHT22;34745;52.276;10.528;2023-05-07T15:16:51;16.70;1.00
48936;DHT22;34745;52.276;10.528;2023-05-07T15:19:18;16.60;1.00
48936;DHT22;34745;52.276;10.528;2023-05-07T15:21:45;16.50;1.00
48936;DHT22;34745;52.276;10.528;2023-05-07T15:24:12;16.40;1.00
48936;DHT22;34745;52.276;10.528;2023-05-07T15:26:39;16.20;1.00
48936;DHT22;34745;52.276;10.528;2023-05-07T15:29:06;16.10;1.00
48936;DHT22;34745;52.276;10.528;2023-05-07T15:31:37;15.70;1.00
48936;DHT22;34745;52.276;10.528;2023-05-07T15:34:08;15.50;1.00
48936;DHT22;34745;52.276;10.528;2023-05-07T15:36:35;15.40;1.00